sensor_id;sensor_type;location;lat;lon;timestamp;pressure;altitude;pressure_sealevel;temperature;humidity
30949;BME280;17637;51.984;21.208;2023-09-30T00:01:40;100472.00;;;14.93;71.16
30949;BME280;17637;51.984;21.208;2023-09-30T00:04:12;100497.81;;;15.07;71.25
30949;BME280;17637;51.984;21.208;2023-09-30T00:06:45;100447.63;;;14.83;70.94
30949;BME280;17637;51.984;21.208;2023-09-30T00:09:16;100455.34;;;14.84;70.81
30949;BME280;17637;51.984;21.208;2023-09-30T00:11:49;100500.94;;;15.11;70.91
30949;BME280;17637;51.984;21.208;2023-09-30T00:14:20;100471.63;;;14.98;71.07
30949;BME280;17637;51.984;21.208;2023-09-30T00:16:52;100464.16;;;14.93;70.60
30949;BME280;17637;51.984;21.208;2023-09-30T00:19:24;100478.94;;;15.04;70.78
30949;BME280;17637;51.984;21.208;2023-09-30T00:21:56;100464.88;;;14.95;71.20
30949;BME280;17637;51.984;21.208;2023-09-30T00:24:29;100462.78;;;14.89;71.08
30949;BME280;17637;51.984;21.208;2023-09-30T00:27:00;100486.63;;;15.05;70.91
30949;BME280;17637;51.984;21.208;2023-09-30T00:29:33;100483.19;;;15.05;70.94
30949;BME280;17637;51.984;21.208;2023-09-30T00:32:05;100478.66;;;14.97;71.45
30949;BME280;17637;51.984;21.208;2023-09-30T00:34:37;100458.78;;;14.85;71.09
30949;BME280;17637;51.984;21.208;2023-09-30T00:37:09;100482.91;;;14.98;71.38
30949;BME280;17637;51.984;21.208;2023-09-30T00:39:40;100476.03;;;14.97;71.30
30949;BME280;17637;51.984;21.208;2023-09-30T00:42:12;100445.16;;;14.81;71.10
30949;BME280;17637;51.984;21.208;2023-09-30T00:44:44;100436.47;;;14.71;70.75
30949;BME280;17637;51.984;21.208;2023-09-30T00:47:16;100423.53;;;14.69;71.11
30949;BME280;17637;51.984;21.208;2023-09-30T00:49:49;100470.91;;;14.96;71.28
30949;BME280;17637;51.984;21.208;2023-09-30T00:52:21;100452.84;;;14.83;71.18
30949;BME280;17637;51.984;21.208;2023-09-30T00:54:54;100485.09;;;14.93;71.22
30949;BME280;17637;51.984;21.208;2023-09-30T00:57:27;100466.91;;;14.91;70.93
30949;BME280;17637;51.984;21.208;2023-09-30T00:59:59;100478.63;;;15.07;70.92
30949;BME280;17637;51.984;21.208;2023-09-30T01:02:32;100432.47;;;14.76;71.01
30949;BME280;17637;51.984;21.208;2023-09-30T01:05:07;100466.81;;;15.03;70.85
30949;BME280;17637;51.984;21.208;2023-09-30T01:07:39;100450.13;;;14.94;70.63
30949;BME280;17637;51.984;21.208;2023-09-30T01:10:11;100458.13;;;15.02;70.41
30949;BME280;17637;51.984;21.208;2023-09-30T01:12:42;100441.56;;;14.92;70.44
30949;BME280;17637;51.984;21.208;2023-09-30T01:15:14;100447.91;;;14.99;70.17
30949;BME280;17637;51.984;21.208;2023-09-30T01:17:46;100426.44;;;14.96;70.19
30949;BME280;17637;51.984;21.208;2023-09-30T01:20:18;100455.34;;;15.14;70.05
30949;BME280;17637;51.984;21.208;2023-09-30T01:22:53;100478.53;;;15.28;70.00
30949;BME280;17637;51.984;21.208;2023-09-30T01:25:26;100462.41;;;15.23;70.11
30949;BME280;17637;51.984;21.208;2023-09-30T01:27:59;100458.69;;;15.16;70.10
30949;BME280;17637;51.984;21.208;2023-09-30T01:30:32;100478.78;;;15.35;69.81
30949;BME280;17637;51.984;21.208;2023-09-30T01:33:05;100418.47;;;14.97;69.89
30949;BME280;17637;51.984;21.208;2023-09-30T01:35:39;100434.28;;;15.05;70.24
30949;BME280;17637;51.984;21.208;2023-09-30T01:38:11;100442.81;;;15.17;69.77
30949;BME280;17637;51.984;21.208;2023-09-30T01:40:43;100387.88;;;14.88;69.36
30949;BME280;17637;51.984;21.208;2023-09-30T01:43:15;100448.06;;;15.27;69.79
30949;BME280;17637;51.984;21.208;2023-09-30T01:45:47;100449.03;;;15.26;69.57
30949;BME280;17637;51.984;21.208;2023-09-30T01:48:19;100458.53;;;15.37;69.54
30949;BME280;17637;51.984;21.208;2023-09-30T01:50:51;100424.38;;;15.19;69.18
30949;BME280;17637;51.984;21.208;2023-09-30T01:53:23;100470.81;;;15.46;69.25
30949;BME280;17637;51.984;21.208;2023-09-30T01:55:55;100414.03;;;15.17;69.05
30949;BME280;17637;51.984;21.208;2023-09-30T01:58:26;100448.19;;;15.45;69.55
30949;BME280;17637;51.984;21.208;2023-09-30T02:01:05;100436.06;;;15.34;69.36
30949;BME280;17637;51.984;21.208;2023-09-30T02:03:37;100409.91;;;15.24;68.92
30949;BME280;17637;51.984;21.208;2023-09-30T02:06:09;100458.78;;;15.53;69.27
30949;BME280;17637;51.984;21.208;2023-09-30T02:08:42;100457.56;;;15.57;68.83
30949;BME280;17637;51.984;21.208;2023-09-30T02:11:16;100422.16;;;15.44;68.78
30949;BME280;17637;51.984;21.208;2023-09-30T02:13:48;100438.53;;;15.55;68.70
30949;BME280;17637;51.984;21.208;2023-09-30T02:16:20;100433.59;;;15.52;68.87
30949;BME280;17637;51.984;21.208;2023-09-30T02:18:51;100441.41;;;15.62;68.52
30949;BME280;17637;51.984;21.208;2023-09-30T02:21:23;100431.78;;;15.53;68.80
30949;BME280;17637;51.984;21.208;2023-09-30T02:23:55;100435.50;;;15.60;68.46
30949;BME280;17637;51.984;21.208;2023-09-30T02:26:28;100433.28;;;15.65;68.56
30949;BME280;17637;51.984;21.208;2023-09-30T02:29:00;100441.16;;;15.65;68.86
30949;BME280;17637;51.984;21.208;2023-09-30T02:31:32;100440.16;;;15.66;69.12
30949;BME280;17637;51.984;21.208;2023-09-30T02:34:05;100421.72;;;15.58;68.97
30949;BME280;17637;51.984;21.208;2023-09-30T02:36:37;100436.97;;;15.72;68.20
30949;BME280;17637;51.984;21.208;2023-09-30T02:39:11;100442.91;;;15.74;68.52
30949;BME280;17637;51.984;21.208;2023-09-30T02:41:43;100402.44;;;15.39;69.26
30949;BME280;17637;51.984;21.208;2023-09-30T02:44:15;100430.38;;;15.68;68.37
30949;BME280;17637;51.984;21.208;2023-09-30T02:46:47;100423.75;;;15.64;68.25
30949;BME280;17637;51.984;21.208;2023-09-30T02:49:19;100440.03;;;15.68;68.09
30949;BME280;17637;51.984;21.208;2023-09-30T02:51:50;100375.72;;;15.26;68.24
30949;BME280;17637;51.984;21.208;2023-09-30T02:54:22;100412.34;;;15.46;68.34
30949;BME280;17637;51.984;21.208;2023-09-30T02:56:54;100395.81;;;15.35;68.33
30949;BME280;17637;51.984;21.208;2023-09-30T02:59:26;100433.53;;;15.72;68.16
30949;BME280;17637;51.984;21.208;2023-09-30T03:01:59;100432.19;;;15.68;68.34
30949;BME280;17637;51.984;21.208;2023-09-30T03:04:30;100396.13;;;15.42;68.21
30949;BME280;17637;51.984;21.208;2023-09-30T03:07:02;100435.59;;;15.68;68.15
30949;BME280;17637;51.984;21.208;2023-09-30T03:09:34;100433.69;;;15.70;68.00
30949;BME280;17637;51.984;21.208;2023-09-30T03:12:07;100426.38;;;15.64;68.42
30949;BME280;17637;51.984;21.208;2023-09-30T03:14:40;100422.66;;;15.67;68.03
30949;BME280;17637;51.984;21.208;2023-09-30T03:17:12;100365.66;;;15.31;68.12
30949;BME280;17637;51.984;21.208;2023-09-30T03:19:44;100384.25;;;15.48;67.72
30949;BME280;17637;51.984;21.208;2023-09-30T03:22:16;100420.59;;;15.70;68.45
30949;BME280;17637;51.984;21.208;2023-09-30T03:24:48;100426.88;;;15.78;68.00
30949;BME280;17637;51.984;21.208;2023-09-30T03:27:20;100383.94;;;15.51;67.98
30949;BME280;17637;51.984;21.208;2023-09-30T03:29:51;100425.69;;;15.72;67.90
30949;BME280;17637;51.984;21.208;2023-09-30T03:32:23;100428.28;;;15.82;67.88
30949;BME280;17637;51.984;21.208;2023-09-30T03:34:56;100421.81;;;15.66;67.69
30949;BME280;17637;51.984;21.208;2023-09-30T03:37:32;100433.94;;;15.77;67.27
30949;BME280;17637;51.984;21.208;2023-09-30T03:40:05;100428.97;;;15.84;67.86
30949;BME280;17637;51.984;21.208;2023-09-30T03:42:43;100434.75;;;15.78;68.13
30949;BME280;17637;51.984;21.208;2023-09-30T03:45:15;100387.16;;;15.45;67.96
30949;BME280;17637;51.984;21.208;2023-09-30T03:47:47;100441.81;;;15.87;67.72
30949;BME280;17637;51.984;21.208;2023-09-30T03:50:20;100434.06;;;15.85;67.55
30949;BME280;17637;51.984;21.208;2023-09-30T03:53:01;100432.97;;;15.78;68.43
30949;BME280;17637;51.984;21.208;2023-09-30T03:55:33;100422.63;;;15.77;68.16
30949;BME280;17637;51.984;21.208;2023-09-30T03:58:05;100404.88;;;15.70;67.94
30949;BME280;17637;51.984;21.208;2023-09-30T04:00:37;100411.63;;;15.63;68.09
30949;BME280;17637;51.984;21.208;2023-09-30T04:03:09;100324.50;;;15.23;67.74
30949;BME280;17637;51.984;21.208;2023-09-30T04:05:41;100390.13;;;15.59;68.12
30949;BME280;17637;51.984;21.208;2023-09-30T04:08:13;100412.72;;;15.70;68.06
30949;BME280;17637;51.984;21.208;2023-09-30T04:10:46;100402.97;;;15.63;68.15
30949;BME280;17637;51.984;21.208;2023-09-30T04:13:18;100404.19;;;15.58;67.98
30949;BME280;17637;51.984;21.208;2023-09-30T04:15:52;100427.44;;;15.71;68.02
30949;BME280;17637;51.984;21.208;2023-09-30T04:18:25;100366.63;;;15.40;68.31
30949;BME280;17637;51.984;21.208;2023-09-30T04:20:58;100402.97;;;15.63;68.01
30949;BME280;17637;51.984;21.208;2023-09-30T04:23:29;100425.22;;;15.77;68.20
30949;BME280;17637;51.984;21.208;2023-09-30T04:26:02;100385.34;;;15.55;67.63
30949;BME280;17637;51.984;21.208;2023-09-30T04:28:34;100414.94;;;15.65;67.97
30949;BME280;17637;51.984;21.208;2023-09-30T04:31:06;100382.72;;;15.45;68.29
30949;BME280;17637;51.984;21.208;2023-09-30T04:33:39;100407.34;;;15.62;68.01
30949;BME280;17637;51.984;21.208;2023-09-30T04:36:11;100393.06;;;15.47;68.28
30949;BME280;17637;51.984;21.208;2023-09-30T04:38:44;100390.56;;;15.55;68.15
30949;BME280;17637;51.984;21.208;2023-09-30T04:41:15;100419.72;;;15.80;68.83
30949;BME280;17637;51.984;21.208;2023-09-30T04:43:47;100386.00;;;15.67;68.53
30949;BME280;17637;51.984;21.208;2023-09-30T04:46:20;100406.50;;;15.81;68.98
30949;BME280;17637;51.984;21.208;2023-09-30T04:48:55;100425.53;;;15.83;69.72
30949;BME280;17637;51.984;21.208;2023-09-30T04:51:27;100429.91;;;15.93;70.28
30949;BME280;17637;51.984;21.208;2023-09-30T04:53:59;100421.38;;;15.81;70.54
30949;BME280;17637;51.984;21.208;2023-09-30T04:56:31;100421.13;;;15.84;70.31
30949;BME280;17637;51.984;21.208;2023-09-30T04:59:04;100416.00;;;15.72;71.21
30949;BME280;17637;51.984;21.208;2023-09-30T05:01:35;100400.03;;;15.66;71.65
30949;BME280;17637;51.984;21.208;2023-09-30T05:04:07;100423.72;;;15.74;72.46
30949;BME280;17637;51.984;21.208;2023-09-30T05:06:39;100432.13;;;15.78;72.71
30949;BME280;17637;51.984;21.208;2023-09-30T05:09:11;100428.84;;;15.75;73.05
30949;BME280;17637;51.984;21.208;2023-09-30T05:11:44;100424.31;;;15.68;74.09
30949;BME280;17637;51.984;21.208;2023-09-30T05:14:15;100382.31;;;15.50;73.23
30949;BME280;17637;51.984;21.208;2023-09-30T05:16:48;100420.28;;;15.73;73.51
30949;BME280;17637;51.984;21.208;2023-09-30T05:19:20;100425.13;;;15.78;73.36
30949;BME280;17637;51.984;21.208;2023-09-30T05:21:52;100433.78;;;15.79;73.49
30949;BME280;17637;51.984;21.208;2023-09-30T05:24:24;100432.97;;;15.78;73.63
30949;BME280;17637;51.984;21.208;2023-09-30T05:26:56;100438.22;;;15.78;74.31
30949;BME280;17637;51.984;21.208;2023-09-30T05:29:29;100391.00;;;15.50;74.07
30949;BME280;17637;51.984;21.208;2023-09-30T05:32:00;100420.59;;;15.61;75.06
30949;BME280;17637;51.984;21.208;2023-09-30T05:34:32;100442.22;;;15.72;74.03
30949;BME280;17637;51.984;21.208;2023-09-30T05:37:04;100435.72;;;15.77;73.65
30949;BME280;17637;51.984;21.208;2023-09-30T05:39:36;100454.75;;;15.88;73.75
30949;BME280;17637;51.984;21.208;2023-09-30T05:42:09;100416.63;;;15.56;74.17
30949;BME280;17637;51.984;21.208;2023-09-30T05:44:41;100429.41;;;15.69;74.01
30949;BME280;17637;51.984;21.208;2023-09-30T05:47:14;100456.66;;;15.77;74.47
30949;BME280;17637;51.984;21.208;2023-09-30T05:49:47;100422.56;;;15.49;75.15
30949;BME280;17637;51.984;21.208;2023-09-30T05:52:20;100435.38;;;15.52;75.61
30949;BME280;17637;51.984;21.208;2023-09-30T05:54:52;100427.66;;;15.60;74.74
30949;BME280;17637;51.984;21.208;2023-09-30T05:57:27;100463.72;;;15.76;76.02
30949;BME280;17637;51.984;21.208;2023-09-30T06:00:00;100468.66;;;15.79;76.45
30949;BME280;17637;51.984;21.208;2023-09-30T06:02:32;100470.06;;;15.73;76.14
30949;BME280;17637;51.984;21.208;2023-09-30T06:05:04;100478.47;;;15.77;75.42
30949;BME280;17637;51.984;21.208;2023-09-30T06:07:36;100441.16;;;15.46;75.86
30949;BME280;17637;51.984;21.208;2023-09-30T06:10:08;100438.41;;;15.47;76.66
30949;BME280;17637;51.984;21.208;2023-09-30T06:12:41;100472.44;;;15.67;76.85
30949;BME280;17637;51.984;21.208;2023-09-30T06:15:16;100436.91;;;15.45;77.04
30949;BME280;17637;51.984;21.208;2023-09-30T06:17:57;100483.72;;;15.67;77.43
30949;BME280;17637;51.984;21.208;2023-09-30T06:20:29;100450.41;;;15.50;77.21
30949;BME280;17637;51.984;21.208;2023-09-30T06:23:02;100472.16;;;15.60;78.20
30949;BME280;17637;51.984;21.208;2023-09-30T06:25:34;100482.34;;;15.53;78.47
30949;BME280;17637;51.984;21.208;2023-09-30T06:28:07;100479.44;;;15.66;79.16
30949;BME280;17637;51.984;21.208;2023-09-30T06:30:40;100491.03;;;15.64;79.19
30949;BME280;17637;51.984;21.208;2023-09-30T06:33:13;100481.25;;;15.56;79.71
30949;BME280;17637;51.984;21.208;2023-09-30T06:35:47;100487.44;;;15.65;79.89
30949;BME280;17637;51.984;21.208;2023-09-30T06:38:23;100494.91;;;15.69;79.76
30949;BME280;17637;51.984;21.208;2023-09-30T06:40:55;100472.16;;;15.50;80.45
30949;BME280;17637;51.984;21.208;2023-09-30T06:43:28;100430.00;;;15.24;80.10
30949;BME280;17637;51.984;21.208;2023-09-30T06:45:59;100484.81;;;15.65;81.03
30949;BME280;17637;51.984;21.208;2023-09-30T06:48:37;100480.56;;;15.54;80.76
30949;BME280;17637;51.984;21.208;2023-09-30T06:51:13;100500.53;;;15.74;80.48
30949;BME280;17637;51.984;21.208;2023-09-30T06:53:46;100496.16;;;15.65;81.73
30949;BME280;17637;51.984;21.208;2023-09-30T06:56:18;100483.19;;;15.54;81.45
30949;BME280;17637;51.984;21.208;2023-09-30T06:58:50;100514.03;;;15.80;81.80
30949;BME280;17637;51.984;21.208;2023-09-30T07:01:22;100486.78;;;15.63;81.59
30949;BME280;17637;51.984;21.208;2023-09-30T07:03:54;100528.41;;;15.85;82.02
30949;BME280;17637;51.984;21.208;2023-09-30T07:06:26;100487.19;;;15.58;81.85
30949;BME280;17637;51.984;21.208;2023-09-30T07:08:58;100506.22;;;15.60;83.53
30949;BME280;17637;51.984;21.208;2023-09-30T07:11:30;100511.03;;;15.74;83.30
30949;BME280;17637;51.984;21.208;2023-09-30T07:14:05;100492.16;;;15.51;84.01
30949;BME280;17637;51.984;21.208;2023-09-30T07:16:37;100534.47;;;15.86;83.29
30949;BME280;17637;51.984;21.208;2023-09-30T07:19:09;100535.44;;;15.95;83.86
30949;BME280;17637;51.984;21.208;2023-09-30T07:21:41;100505.50;;;15.78;83.88
30949;BME280;17637;51.984;21.208;2023-09-30T07:24:13;100538.56;;;16.08;83.29
30949;BME280;17637;51.984;21.208;2023-09-30T07:26:46;100487.59;;;15.83;83.10
30949;BME280;17637;51.984;21.208;2023-09-30T07:29:18;100518.72;;;16.05;83.51
30949;BME280;17637;51.984;21.208;2023-09-30T07:31:50;100540.72;;;16.22;84.07
30949;BME280;17637;51.984;21.208;2023-09-30T07:34:22;100550.00;;;16.17;84.43
30949;BME280;17637;51.984;21.208;2023-09-30T07:36:54;100552.59;;;16.27;84.47
30949;BME280;17637;51.984;21.208;2023-09-30T07:39:27;100516.53;;;15.91;85.16
30949;BME280;17637;51.984;21.208;2023-09-30T07:41:59;100498.19;;;15.91;84.78
30949;BME280;17637;51.984;21.208;2023-09-30T07:44:31;100535.09;;;16.17;84.87
30949;BME280;17637;51.984;21.208;2023-09-30T07:47:04;100492.09;;;16.00;84.47
30949;BME280;17637;51.984;21.208;2023-09-30T07:49:38;100507.81;;;16.00;85.62
30949;BME280;17637;51.984;21.208;2023-09-30T07:52:10;100531.03;;;16.33;84.11
30949;BME280;17637;51.984;21.208;2023-09-30T07:54:42;100542.31;;;16.43;84.83
30949;BME280;17637;51.984;21.208;2023-09-30T07:57:15;100492.69;;;16.32;84.92
30949;BME280;17637;51.984;21.208;2023-09-30T07:59:46;100555.97;;;16.84;83.51
30949;BME280;17637;51.984;21.208;2023-09-30T08:02:18;100509.50;;;16.67;83.81
30949;BME280;17637;51.984;21.208;2023-09-30T08:04:50;100480.84;;;16.55;83.61
30949;BME280;17637;51.984;21.208;2023-09-30T08:07:22;100502.78;;;16.54;83.18
30949;BME280;17637;51.984;21.208;2023-09-30T08:09:55;100542.53;;;16.87;83.88
30949;BME280;17637;51.984;21.208;2023-09-30T08:12:27;100520.97;;;16.66;84.71
30949;BME280;17637;51.984;21.208;2023-09-30T08:14:59;100548.75;;;16.96;83.96
30949;BME280;17637;51.984;21.208;2023-09-30T08:17:31;100525.41;;;16.93;83.40
30949;BME280;17637;51.984;21.208;2023-09-30T08:20:04;100540.41;;;17.01;83.59
30949;BME280;17637;51.984;21.208;2023-09-30T08:22:36;100507.50;;;16.79;83.36
30949;BME280;17637;51.984;21.208;2023-09-30T08:25:08;100561.22;;;17.12;83.58
30949;BME280;17637;51.984;21.208;2023-09-30T08:27:43;100545.00;;;16.99;84.04
30949;BME280;17637;51.984;21.208;2023-09-30T08:30:17;100538.25;;;16.86;84.26
30949;BME280;17637;51.984;21.208;2023-09-30T08:32:49;100563.44;;;17.07;85.00
30949;BME280;17637;51.984;21.208;2023-09-30T08:35:21;100498.25;;;16.56;85.06
30949;BME280;17637;51.984;21.208;2023-09-30T08:37:53;100545.72;;;16.91;85.05
30949;BME280;17637;51.984;21.208;2023-09-30T08:40:25;100556.47;;;16.88;84.80
30949;BME280;17637;51.984;21.208;2023-09-30T08:42:57;100483.69;;;16.62;84.97
30949;BME280;17637;51.984;21.208;2023-09-30T08:45:31;100541.31;;;16.92;85.49
30949;BME280;17637;51.984;21.208;2023-09-30T08:48:05;100548.75;;;16.96;85.21
30949;BME280;17637;51.984;21.208;2023-09-30T08:50:38;100554.06;;;17.04;85.22
30949;BME280;17637;51.984;21.208;2023-09-30T08:53:14;100521.97;;;16.93;85.31
30949;BME280;17637;51.984;21.208;2023-09-30T08:55:48;100530.00;;;16.91;85.51
30949;BME280;17637;51.984;21.208;2023-09-30T08:58:32;100551.78;;;17.19;85.44
30949;BME280;17637;51.984;21.208;2023-09-30T09:01:04;100518.91;;;16.97;85.11
30949;BME280;17637;51.984;21.208;2023-09-30T09:03:38;100558.97;;;17.17;85.11
30949;BME280;17637;51.984;21.208;2023-09-30T09:06:10;100547.91;;;16.96;85.54
30949;BME280;17637;51.984;21.208;2023-09-30T09:08:42;100567.44;;;17.11;85.46
30949;BME280;17637;51.984;21.208;2023-09-30T09:11:15;100568.50;;;17.18;85.47
30949;BME280;17637;51.984;21.208;2023-09-30T09:13:53;100536.28;;;16.98;85.27
30949;BME280;17637;51.984;21.208;2023-09-30T09:16:28;100513.47;;;16.71;86.57
30949;BME280;17637;51.984;21.208;2023-09-30T09:19:13;100545.06;;;17.07;85.59
30949;BME280;17637;51.984;21.208;2023-09-30T09:21:58;100562.06;;;17.31;85.22
30949;BME280;17637;51.984;21.208;2023-09-30T09:24:32;100570.47;;;17.16;86.03
30949;BME280;17637;51.984;21.208;2023-09-30T09:27:11;100571.13;;;17.36;85.56
30949;BME280;17637;51.984;21.208;2023-09-30T09:29:44;100576.53;;;17.35;86.16
30949;BME280;17637;51.984;21.208;2023-09-30T09:32:17;100568.50;;;17.54;84.53
30949;BME280;17637;51.984;21.208;2023-09-30T09:35:00;100567.16;;;17.68;84.62
30949;BME280;17637;51.984;21.208;2023-09-30T09:37:33;100534.75;;;17.24;85.56
30949;BME280;17637;51.984;21.208;2023-09-30T09:40:05;100541.97;;;17.40;85.30
30949;BME280;17637;51.984;21.208;2023-09-30T09:42:39;100566.63;;;17.47;85.16
30949;BME280;17637;51.984;21.208;2023-09-30T09:45:11;100522.47;;;17.24;84.94
30949;BME280;17637;51.984;21.208;2023-09-30T09:47:43;100564.97;;;17.28;85.89
30949;BME280;17637;51.984;21.208;2023-09-30T09:50:16;100524.00;;;17.17;86.06
30949;BME280;17637;51.984;21.208;2023-09-30T09:52:51;100575.19;;;17.31;86.30
30949;BME280;17637;51.984;21.208;2023-09-30T09:55:24;100575.78;;;17.25;86.57
30949;BME280;17637;51.984;21.208;2023-09-30T09:57:57;100586.75;;;17.38;86.95
30949;BME280;17637;51.984;21.208;2023-09-30T10:00:30;100558.22;;;17.25;86.91
30949;BME280;17637;51.984;21.208;2023-09-30T10:03:03;100580.91;;;17.44;86.58
30949;BME280;17637;51.984;21.208;2023-09-30T10:05:38;100568.44;;;17.28;87.47
30949;BME280;17637;51.984;21.208;2023-09-30T10:08:16;100576.38;;;17.18;87.63
30949;BME280;17637;51.984;21.208;2023-09-30T10:10:49;100590.56;;;17.26;88.57
30949;BME280;17637;51.984;21.208;2023-09-30T10:13:49;100602.00;;;17.34;88.19
30949;BME280;17637;51.984;21.208;2023-09-30T10:19:15;100602.69;;;17.09;90.31
30949;BME280;17637;51.984;21.208;2023-09-30T10:24:52;100595.59;;;16.91;91.22
30949;BME280;17637;51.984;21.208;2023-09-30T10:40:53;100619.47;;;17.26;90.64
30949;BME280;17637;51.984;21.208;2023-09-30T10:43:29;100600.78;;;17.01;90.61
30949;BME280;17637;51.984;21.208;2023-09-30T10:46:03;100638.66;;;17.26;90.88
30949;BME280;17637;51.984;21.208;2023-09-30T10:48:39;100606.63;;;16.95;90.95
30949;BME280;17637;51.984;21.208;2023-09-30T10:51:20;100620.66;;;17.03;90.55
30949;BME280;17637;51.984;21.208;2023-09-30T10:53:55;100629.16;;;16.97;90.74
30949;BME280;17637;51.984;21.208;2023-09-30T10:56:32;100646.00;;;16.95;91.78
30949;BME280;17637;51.984;21.208;2023-09-30T10:59:04;100633.63;;;16.67;91.35
30949;BME280;17637;51.984;21.208;2023-09-30T11:01:36;100660.56;;;16.69;91.24
30949;BME280;17637;51.984;21.208;2023-09-30T11:04:08;100604.66;;;16.12;91.02
30949;BME280;17637;51.984;21.208;2023-09-30T11:06:44;100658.81;;;16.50;90.95
30949;BME280;17637;51.984;21.208;2023-09-30T11:09:20;100659.72;;;16.69;90.04
30949;BME280;17637;51.984;21.208;2023-09-30T11:11:53;100654.38;;;16.61;89.65
30949;BME280;17637;51.984;21.208;2023-09-30T11:14:30;100639.66;;;16.50;89.58
30949;BME280;17637;51.984;21.208;2023-09-30T11:17:03;100666.69;;;16.60;89.42
30949;BME280;17637;51.984;21.208;2023-09-30T11:19:47;100680.19;;;16.65;89.52
30949;BME280;17637;51.984;21.208;2023-09-30T11:22:19;100650.84;;;16.32;89.10
30949;BME280;17637;51.984;21.208;2023-09-30T11:24:51;100673.44;;;16.43;89.82
30949;BME280;17637;51.984;21.208;2023-09-30T11:27:24;100665.78;;;16.02;88.99
30949;BME280;17637;51.984;21.208;2023-09-30T11:29:56;100653.34;;;16.04;88.86
30949;BME280;17637;51.984;21.208;2023-09-30T11:32:30;100686.19;;;16.08;89.00
30949;BME280;17637;51.984;21.208;2023-09-30T11:35:02;100699.84;;;16.22;88.85
30949;BME280;17637;51.984;21.208;2023-09-30T11:37:34;100658.00;;;15.71;89.19
30949;BME280;17637;51.984;21.208;2023-09-30T11:40:13;100702.47;;;16.02;89.31
30949;BME280;17637;51.984;21.208;2023-09-30T11:43:07;100696.13;;;15.95;88.51
30949;BME280;17637;51.984;21.208;2023-09-30T11:45:40;100696.88;;;15.76;87.55
30949;BME280;17637;51.984;21.208;2023-09-30T11:48:18;100699.41;;;15.87;87.69
30949;BME280;17637;51.984;21.208;2023-09-30T11:50:52;100693.09;;;16.10;86.53
30949;BME280;17637;51.984;21.208;2023-09-30T11:53:24;100663.94;;;15.73;85.66
30949;BME280;17637;51.984;21.208;2023-09-30T11:55:57;100714.06;;;16.29;84.97
30949;BME280;17637;51.984;21.208;2023-09-30T11:58:30;100696.13;;;16.24;84.64
30949;BME280;17637;51.984;21.208;2023-09-30T12:01:03;100716.81;;;16.47;83.71
30949;BME280;17637;51.984;21.208;2023-09-30T12:03:38;100695.72;;;16.19;84.32
30949;BME280;17637;51.984;21.208;2023-09-30T12:06:12;100681.34;;;16.14;82.98
30949;BME280;17637;51.984;21.208;2023-09-30T12:08:45;100650.03;;;15.83;83.32
30949;BME280;17637;51.984;21.208;2023-09-30T12:11:20;100695.00;;;16.27;83.33
30949;BME280;17637;51.984;21.208;2023-09-30T12:13:52;100669.75;;;16.36;82.82
30949;BME280;17637;51.984;21.208;2023-09-30T12:16:24;100699.28;;;16.48;81.00
30949;BME280;17637;51.984;21.208;2023-09-30T12:18:55;100672.75;;;16.61;81.10
30949;BME280;17637;51.984;21.208;2023-09-30T12:21:28;100704.28;;;16.88;80.64
30949;BME280;17637;51.984;21.208;2023-09-30T12:24:00;100672.75;;;16.51;80.99
30949;BME280;17637;51.984;21.208;2023-09-30T12:26:33;100677.56;;;16.65;80.57
30949;BME280;17637;51.984;21.208;2023-09-30T12:29:05;100712.66;;;16.64;79.06
30949;BME280;17637;51.984;21.208;2023-09-30T12:31:37;100688.38;;;16.52;78.73
30949;BME280;17637;51.984;21.208;2023-09-30T12:34:23;100710.00;;;16.74;78.93
30949;BME280;17637;51.984;21.208;2023-09-30T12:36:57;100695.78;;;16.67;78.56
30949;BME280;17637;51.984;21.208;2023-09-30T12:39:29;100677.53;;;16.75;78.17
30949;BME280;17637;51.984;21.208;2023-09-30T12:42:05;100699.72;;;17.00;77.06
30949;BME280;17637;51.984;21.208;2023-09-30T12:44:40;100693.66;;;17.00;76.01
30949;BME280;17637;51.984;21.208;2023-09-30T12:47:13;100713.06;;;17.17;76.21
30949;BME280;17637;51.984;21.208;2023-09-30T12:49:45;100722.44;;;17.29;76.25
30949;BME280;17637;51.984;21.208;2023-09-30T12:52:17;100668.03;;;17.12;74.87
30949;BME280;17637;51.984;21.208;2023-09-30T12:54:49;100651.38;;;17.31;75.02
30949;BME280;17637;51.984;21.208;2023-09-30T12:57:21;100675.66;;;17.61;73.24
30949;BME280;17637;51.984;21.208;2023-09-30T12:59:53;100692.84;;;17.73;72.00
30949;BME280;17637;51.984;21.208;2023-09-30T13:02:25;100708.41;;;17.66;72.05
30949;BME280;17637;51.984;21.208;2023-09-30T13:04:57;100669.56;;;17.60;72.06
30949;BME280;17637;51.984;21.208;2023-09-30T13:07:29;100709.88;;;17.97;71.46
30949;BME280;17637;51.984;21.208;2023-09-30T13:10:01;100697.84;;;17.94;70.87
30949;BME280;17637;51.984;21.208;2023-09-30T13:12:33;100682.22;;;17.47;71.63
30949;BME280;17637;51.984;21.208;2023-09-30T13:15:06;100716.16;;;17.86;70.18
30949;BME280;17637;51.984;21.208;2023-09-30T13:17:40;100692.91;;;17.63;69.44
30949;BME280;17637;51.984;21.208;2023-09-30T13:20:12;100695.38;;;18.11;68.41
30949;BME280;17637;51.984;21.208;2023-09-30T13:22:44;100709.56;;;18.18;68.82
30949;BME280;17637;51.984;21.208;2023-09-30T13:25:15;100711.84;;;18.13;67.26
30949;BME280;17637;51.984;21.208;2023-09-30T13:27:47;100700.31;;;18.32;67.00
30949;BME280;17637;51.984;21.208;2023-09-30T13:30:19;100716.63;;;18.17;67.05